createdAt,value
2022-12-01T00:01:16.406Z,101205.84
2022-12-01T00:03:43.072Z,101198.06
2022-12-01T00:06:17.963Z,101198.41
2022-12-01T00:09:05.053Z,101202.69
2022-12-01T00:11:33.073Z,101204.75
2022-12-01T00:13:59.674Z,101197.19
2022-12-01T00:16:26.328Z,101194.50
2022-12-01T00:18:53.256Z,101192.91
2022-12-01T00:21:23.005Z,101202.53
2022-12-01T00:23:55.182Z,101189.25
2022-12-01T00:26:22.738Z,101190.34
2022-12-01T00:28:51.214Z,101183.81
2022-12-01T00:31:18.080Z,101193.53
2022-12-01T00:33:44.742Z,101193.53
2022-12-01T00:36:11.485Z,101193.66
2022-12-01T00:38:38.873Z,101186.56
2022-12-01T00:41:05.639Z,101189.69
2022-12-01T00:43:32.580Z,101191.03
2022-12-01T00:45:59.456Z,101198.91
2022-12-01T00:48:26.071Z,101196.63
2022-12-01T00:50:53.571Z,101198.44
2022-12-01T00:53:20.878Z,101201.09
2022-12-01T00:55:47.467Z,101201.84
2022-12-01T00:58:14.030Z,101204.28
2022-12-01T01:00:40.634Z,101211.09
2022-12-01T01:03:07.712Z,101204.91
2022-12-01T01:05:42.024Z,101208.34
2022-12-01T01:08:13.438Z,101215.38
2022-12-01T01:10:41.283Z,101213.44
2022-12-01T01:13:07.846Z,101216.22
2022-12-01T01:15:34.513Z,101213.16
2022-12-01T01:18:01.622Z,101216.81
2022-12-01T01:20:28.863Z,101216.69
2022-12-01T01:22:55.420Z,101220.31
2022-12-01T01:25:22.835Z,101215.31
2022-12-01T01:27:49.783Z,101225.28
2022-12-01T01:30:16.897Z,101222.81
2022-12-01T01:32:43.480Z,101225.50
2022-12-01T01:35:10.097Z,101211.63
2022-12-01T01:37:36.622Z,101222.94
2022-12-01T01:40:03.442Z,101220.38
2022-12-01T01:42:30.024Z,101230.09
2022-12-01T01:44:58.789Z,101213.84
2022-12-01T01:47:32.918Z,101224.31
2022-12-01T01:50:06.246Z,101219.69
2022-12-01T01:52:35.943Z,101215.22
2022-12-01T01:55:02.930Z,101222.25
2022-12-01T01:57:33.298Z,101206.13
2022-12-01T02:00:08.012Z,101207.81
2022-12-01T02:02:40.798Z,101211.34
2022-12-01T02:05:11.152Z,101206.72
2022-12-01T02:07:39.868Z,101203.94
2022-12-01T02:10:09.177Z,101206.63
2022-12-01T02:12:54.472Z,101203.81
2022-12-01T02:15:39.627Z,101192.28
2022-12-01T02:18:43.180Z,101197.41
2022-12-01T02:21:44.266Z,101195.47
2022-12-01T02:24:25.967Z,101199.13
2022-12-01T02:26:58.627Z,101198.25
2022-12-01T02:29:56.145Z,101191.19
2022-12-01T02:33:04.909Z,101194.72
2022-12-01T02:35:40.378Z,101193.97
2022-12-01T02:38:16.208Z,101191.75
2022-12-01T02:40:48.474Z,101194.22
2022-12-01T02:43:49.361Z,101192.50
2022-12-01T02:46:25.364Z,101196.16
2022-12-01T02:48:55.400Z,101197.09
2022-12-01T02:51:29.014Z,101195.63
2022-12-01T02:53:58.700Z,101190.41
2022-12-01T02:56:25.604Z,101192.94
2022-12-01T02:58:52.302Z,101190.06
2022-12-01T03:01:33.869Z,101187.41
2022-12-01T03:04:31.146Z,101184.59
2022-12-01T03:07:00.315Z,101180.44
2022-12-01T03:09:38.913Z,101184.81
2022-12-01T03:12:41.618Z,101183.97
2022-12-01T03:15:29.764Z,101179.59
2022-12-01T03:18:28.470Z,101179.91
2022-12-01T03:21:26.715Z,101188.69
2022-12-01T03:24:01.761Z,101185.91
2022-12-01T03:26:32.656Z,101176.91
2022-12-01T03:29:05.655Z,101177.91
2022-12-01T03:31:37.782Z,101174.47
2022-12-01T03:34:12.483Z,101176.19
2022-12-01T03:36:50.141Z,101174.38
2022-12-01T03:39:23.986Z,101174.38
2022-12-01T03:42:06.870Z,101167.53
2022-12-01T03:44:42.278Z,101168.59
2022-12-01T03:47:17.072Z,101172.25
2022-12-01T03:49:45.227Z,101176.88
2022-12-01T03:52:49.491Z,101170.78
2022-12-01T03:55:29.413Z,101182.44
2022-12-01T03:58:11.389Z,101179.88
2022-12-01T04:00:39.073Z,101180.63
2022-12-01T04:03:06.487Z,101183.28
2022-12-01T04:05:34.846Z,101176.22
2022-12-01T04:08:02.007Z,101181.47
2022-12-01T04:10:28.833Z,101166.72
2022-12-01T04:12:59.385Z,101177.41
2022-12-01T04:15:27.273Z,101175.94
2022-12-01T04:17:54.135Z,101173.25
2022-12-01T04:20:21.302Z,101172.31
2022-12-01T04:22:48.260Z,101173.78
2022-12-01T04:25:14.972Z,101179.75
2022-12-01T04:27:41.542Z,101175.28
2022-12-01T04:30:09.021Z,101174.41
2022-12-01T04:32:42.324Z,101183.41
2022-12-01T04:35:11.911Z,101174.66
2022-12-01T04:37:39.532Z,101175.59
2022-12-01T04:40:07.127Z,101181.69
2022-12-01T04:42:33.723Z,101176.66
2022-12-01T04:45:00.320Z,101186.16
2022-12-01T04:47:26.922Z,101183.63
2022-12-01T04:49:54.437Z,101184.25
2022-12-01T04:52:20.991Z,101185.63
2022-12-01T04:54:47.540Z,101187.31
2022-12-01T04:57:14.128Z,101188.31
2022-12-01T04:59:40.707Z,101180.63
2022-12-01T05:02:07.673Z,101187.66
2022-12-01T05:04:38.445Z,101180.63
2022-12-01T05:07:05.232Z,101186.59
2022-12-01T05:09:31.884Z,101181.22
2022-12-01T05:11:58.462Z,101182.84
2022-12-01T05:14:25.055Z,101183.56
2022-12-01T05:16:51.657Z,101181.03
2022-12-01T05:19:36.972Z,101187.44
2022-12-01T05:22:03.516Z,101186.69
2022-12-01T05:24:30.078Z,101182.97
2022-12-01T05:26:56.722Z,101171.63
2022-12-01T05:29:23.318Z,101180.38
2022-12-01T05:31:49.921Z,101188.31
2022-12-01T05:34:16.615Z,101184.53
2022-12-01T05:36:43.224Z,101191.47
2022-12-01T05:39:09.868Z,101190.53
2022-12-01T05:41:36.775Z,101196.09
2022-12-01T05:44:03.380Z,101194.16
2022-12-01T05:46:29.960Z,101197.69
2022-12-01T05:48:56.500Z,101196.63
2022-12-01T05:51:23.067Z,101197.22
2022-12-01T05:53:50.011Z,101193.69
2022-12-01T05:56:16.633Z,101197.09
2022-12-01T05:58:43.216Z,101194.44
2022-12-01T06:01:09.897Z,101187.59
2022-12-01T06:03:36.480Z,101192.75
2022-12-01T06:06:03.061Z,101192.94
2022-12-01T06:08:29.822Z,101201.50
2022-12-01T06:10:56.381Z,101195.41
2022-12-01T06:13:23.106Z,101200.53
2022-12-01T06:16:01.244Z,101199.78
2022-12-01T06:18:30.037Z,101202.34
2022-12-01T06:20:56.648Z,101202.25
2022-12-01T06:23:27.598Z,101200.41
2022-12-01T06:25:56.663Z,101196.03
2022-12-01T06:28:23.254Z,101197.84
2022-12-01T06:30:49.854Z,101191.25
2022-12-01T06:33:16.457Z,101202.56
2022-12-01T06:35:43.075Z,101198.84
2022-12-01T06:38:09.660Z,101199.44
2022-12-01T06:40:36.492Z,101198.25
2022-12-01T06:43:03.056Z,101208.63
2022-12-01T06:45:30.353Z,101203.28
2022-12-01T06:47:57.680Z,101201.22
2022-12-01T06:50:25.277Z,101204.75
2022-12-01T06:52:52.879Z,101213.50
2022-12-01T06:55:19.591Z,101208.91
2022-12-01T06:57:46.642Z,101213.13
2022-12-01T07:00:14.557Z,101212.53
2022-12-01T07:02:41.565Z,101221.16
2022-12-01T07:05:08.514Z,101219.22
2022-12-01T07:07:41.053Z,101216.34
2022-12-01T07:10:09.843Z,101223.28
2022-12-01T07:12:36.748Z,101229.38
2022-12-01T07:15:04.499Z,101221.22
2022-12-01T07:17:31.046Z,101219.63
2022-12-01T07:19:58.103Z,101229.53
2022-12-01T07:22:29.539Z,101233.47
2022-12-01T07:24:58.904Z,101224.00
2022-12-01T07:27:25.516Z,101225.84
2022-12-01T07:29:52.109Z,101229.53
2022-12-01T07:32:18.754Z,101225.41
2022-12-01T07:34:45.315Z,101239.44
2022-12-01T07:37:11.850Z,101237.66
2022-12-01T07:41:32.246Z,101234.47
2022-12-01T07:43:58.886Z,101232.06
2022-12-01T07:46:27.244Z,101236.44
2022-12-01T07:48:54.988Z,101240.38
2022-12-01T07:51:23.124Z,101240.75
2022-12-01T07:53:50.958Z,101254.00
2022-12-01T07:56:18.963Z,101249.75
2022-12-01T07:58:45.692Z,101249.88
2022-12-01T08:01:24.824Z,101257.19
2022-12-01T08:03:53.866Z,101245.69
2022-12-01T08:06:21.190Z,101254.59
2022-12-01T08:08:47.923Z,101258.97
2022-12-01T08:11:17.619Z,101257.59
2022-12-01T08:13:44.980Z,101259.41
2022-12-01T08:16:14.689Z,101253.88
2022-12-01T08:18:42.735Z,101253.44
2022-12-01T08:21:11.890Z,101253.56
2022-12-01T08:23:38.694Z,101258.09
2022-12-01T08:26:08.233Z,101246.44
2022-12-01T08:28:38.952Z,101254.38
2022-12-01T08:31:12.359Z,101252.56
2022-12-01T08:33:39.218Z,101255.19
2022-12-01T08:36:06.843Z,101255.59
2022-12-01T08:38:33.674Z,101252.34
2022-12-01T08:41:05.539Z,101252.94
2022-12-01T08:43:56.579Z,101265.00
2022-12-01T08:46:18.872Z,101261.19
2022-12-01T08:48:45.658Z,101254.72
2022-12-01T08:51:18.365Z,101269.13
2022-12-01T08:53:47.744Z,101262.22
2022-12-01T08:56:21.243Z,101269.09
2022-12-01T08:58:48.279Z,101268.78
2022-12-01T09:01:16.572Z,101259.56
2022-12-01T09:03:44.245Z,101272.41
2022-12-01T09:06:16.083Z,101270.91
2022-12-01T09:08:43.347Z,101274.50
2022-12-01T09:11:16.014Z,101270.53
2022-12-01T09:13:43.550Z,101272.72
2022-12-01T09:16:17.288Z,101268.19
2022-12-01T09:18:45.504Z,101263.13
2022-12-01T09:21:21.166Z,101263.75
2022-12-01T09:23:48.700Z,101266.53
2022-12-01T09:26:18.672Z,101262.28
2022-12-01T09:28:46.566Z,101276.28
2022-12-01T09:31:15.138Z,101271.69
2022-12-01T09:33:41.621Z,101271.09
2022-12-01T09:36:09.026Z,101264.03
2022-12-01T09:38:37.101Z,101263.91
2022-12-01T09:41:18.245Z,101265.41
2022-12-01T09:43:54.054Z,101256.25
2022-12-01T09:46:26.585Z,101257.91
2022-12-01T09:48:57.248Z,101252.75
2022-12-01T09:51:26.301Z,101244.53
2022-12-01T09:53:59.739Z,101245.78
2022-12-01T09:56:27.632Z,101244.19
2022-12-01T09:58:57.401Z,101246.34
2022-12-01T10:01:44.803Z,101242.00
2022-12-01T10:04:46.510Z,101238.72
2022-12-01T10:07:21.272Z,101236.97
2022-12-01T10:09:52.274Z,101229.31
2022-12-01T10:12:22.595Z,101227.25
2022-12-01T10:14:49.153Z,101222.78
2022-12-01T10:17:15.637Z,101214.56
2022-12-01T10:20:02.774Z,101219.00
2022-12-01T10:22:49.179Z,101213.69
2022-12-01T10:25:21.898Z,101211.06
2022-12-01T10:28:06.861Z,101210.97
2022-12-01T10:30:39.347Z,101206.38
2022-12-01T10:33:34.031Z,101209.91
2022-12-01T10:36:00.736Z,101211.94
2022-12-01T10:38:31.061Z,101202.88
2022-12-01T10:41:01.494Z,101203.97
2022-12-01T10:43:57.874Z,101202.88
2022-12-01T10:46:32.888Z,101195.66
2022-12-01T10:49:06.876Z,101195.84
2022-12-01T10:51:56.728Z,101188.81
2022-12-01T10:54:40.197Z,101185.72
2022-12-01T10:57:14.573Z,101182.84
2022-12-01T10:59:53.216Z,101195.28
2022-12-01T11:02:22.780Z,101183.53
2022-12-01T11:04:59.548Z,101194.53
2022-12-01T11:07:43.097Z,101199.00
2022-12-01T11:10:17.638Z,101189.94
2022-12-01T11:12:52.373Z,101187.78
2022-12-01T11:15:28.113Z,101183.88
2022-12-01T11:18:03.500Z,101184.34
2022-12-01T11:20:38.533Z,101180.69
2022-12-01T11:23:29.956Z,101183.09
2022-12-01T11:25:58.465Z,101180.28
2022-12-01T11:28:25.396Z,101173.47
2022-12-01T11:30:58.418Z,101171.75
2022-12-01T11:33:25.942Z,101174.69
2022-12-01T11:35:52.754Z,101164.81
2022-12-01T11:38:30.527Z,101171.19
2022-12-01T11:40:58.567Z,101149.03
2022-12-01T11:43:29.581Z,101164.00
2022-12-01T11:45:58.754Z,101156.84
2022-12-01T11:48:30.793Z,101166.66
2022-12-01T11:51:37.162Z,101164.75
2022-12-01T11:54:23.269Z,101159.47
2022-12-01T11:57:17.474Z,101161.22
2022-12-01T11:59:38.041Z,101155.13
2022-12-01T12:02:23.187Z,101156.56
2022-12-01T12:05:04.490Z,101134.69
2022-12-01T12:07:55.128Z,101151.94
2022-12-01T12:10:41.221Z,101161.41
2022-12-01T12:13:46.863Z,101150.56
2022-12-01T12:16:57.917Z,101145.38
2022-12-01T12:20:12.403Z,101138.56
2022-12-01T12:22:57.882Z,101139.53
2022-12-01T12:25:46.160Z,101138.28
2022-12-01T12:28:12.700Z,101128.03
2022-12-01T12:31:01.781Z,101125.31
2022-12-01T12:33:59.338Z,101120.00
2022-12-01T12:36:52.003Z,101118.66
2022-12-01T12:39:32.172Z,101119.72
2022-12-01T12:41:58.857Z,101109.47
2022-12-01T12:44:37.261Z,101110.19
2022-12-01T12:47:25.519Z,101113.81
2022-12-01T12:50:12.041Z,101104.63
2022-12-01T12:52:45.594Z,101092.28
2022-12-01T12:55:37.126Z,101091.81
2022-12-01T12:58:13.196Z,101094.38
2022-12-01T13:00:48.476Z,101094.75
2022-12-01T13:03:23.208Z,101091.84
2022-12-01T13:06:01.590Z,101098.31
2022-12-01T13:08:38.591Z,101092.00
2022-12-01T13:11:20.846Z,101091.91
2022-12-01T13:14:17.937Z,101083.84
2022-12-01T13:16:48.337Z,101085.44
2022-12-01T13:19:35.527Z,101083.56
2022-12-01T13:22:03.150Z,101090.16
2022-12-01T13:24:31.282Z,101085.22
2022-12-01T13:27:03.031Z,101079.81
2022-12-01T13:29:37.444Z,101080.00
2022-12-01T13:32:28.525Z,101070.44
2022-12-01T13:34:55.578Z,101076.75
2022-12-01T13:37:34.287Z,101076.94
2022-12-01T13:40:09.265Z,101081.22
2022-12-01T13:42:37.306Z,101069.44
2022-12-01T13:45:19.186Z,101072.66
2022-12-01T13:47:54.903Z,101064.34
2022-12-01T13:50:43.833Z,101064.16
2022-12-01T13:53:19.298Z,101062.63
2022-12-01T13:56:05.702Z,101068.34
2022-12-01T13:58:32.337Z,101056.41
2022-12-01T14:01:20.883Z,101061.53
2022-12-01T14:04:18.103Z,101060.06
2022-12-01T14:06:49.619Z,101063.91
2022-12-01T14:09:35.369Z,101059.56
2022-12-01T14:12:06.599Z,101058.41
2022-12-01T14:14:38.950Z,101058.41
2022-12-01T14:17:06.051Z,101053.81
2022-12-01T14:19:32.561Z,101066.63
2022-12-01T14:22:01.340Z,101061.41
2022-12-01T14:24:40.545Z,101060.38
2022-12-01T14:27:11.818Z,101063.09
2022-12-01T14:29:42.670Z,101063.25
2022-12-01T14:32:09.206Z,101056.56
2022-12-01T14:34:37.406Z,101067.19
2022-12-01T14:37:11.199Z,101060.78
2022-12-01T14:39:43.428Z,101059.94
2022-12-01T14:43:00.182Z,101063.94
2022-12-01T14:45:45.662Z,101070.25
2022-12-01T14:48:21.514Z,101067.22
2022-12-01T14:50:51.947Z,101068.63
2022-12-01T14:53:24.278Z,101069.31
2022-12-01T14:55:58.843Z,101069.22
2022-12-01T14:58:31.961Z,101078.53
2022-12-01T15:01:11.016Z,101084.28
2022-12-01T15:03:45.505Z,101062.06
2022-12-01T15:06:20.889Z,101081.22
2022-12-01T15:09:32.002Z,101089.91
2022-12-01T15:11:54.700Z,101087.47
2022-12-01T15:14:22.521Z,101086.34
2022-12-01T15:16:49.367Z,101083.50
2022-12-01T15:19:35.269Z,101093.88
2022-12-01T15:22:16.965Z,101085.28
2022-12-01T15:24:44.567Z,101086.72
2022-12-01T15:27:32.477Z,101094.97
2022-12-01T15:30:04.420Z,101091.97
2022-12-01T15:32:37.833Z,101091.16
2022-12-01T15:35:05.588Z,101089.59
2022-12-01T15:37:42.564Z,101099.66
2022-12-01T15:43:14.397Z,101097.88
2022-12-01T15:45:56.469Z,101098.16
2022-12-01T15:48:32.875Z,101104.00
2022-12-01T15:51:01.814Z,101101.44
2022-12-01T15:53:32.881Z,101097.31
2022-12-01T15:56:01.784Z,101102.00
2022-12-01T15:58:36.321Z,101096.63
2022-12-01T16:01:12.997Z,101103.69
2022-12-01T16:04:14.263Z,101100.84
2022-12-01T16:06:41.492Z,101103.69
2022-12-01T16:09:28.679Z,101102.94
2022-12-01T16:12:22.652Z,101102.41
2022-12-01T16:14:50.902Z,101107.88
2022-12-01T16:17:17.629Z,101103.47
2022-12-01T16:19:45.553Z,101105.47
2022-12-01T16:22:14.378Z,101095.97
2022-12-01T16:24:48.719Z,101101.06
2022-12-01T16:27:28.558Z,101105.81
2022-12-01T16:29:57.174Z,101113.69
2022-12-01T16:32:29.735Z,101103.25
2022-12-01T16:34:56.268Z,101106.91
2022-12-01T16:37:23.264Z,101102.19
2022-12-01T16:39:50.033Z,101112.63
2022-12-01T16:42:18.735Z,101109.75
2022-12-01T16:44:46.509Z,101114.25
2022-12-01T16:47:19.225Z,101113.53
2022-12-01T16:49:45.978Z,101122.13
